sensor_id;sensor_type;location;lat;lon;timestamp;temperature;humidity
12152;DHT22;6139;51.274;7.128;2023-02-01T00:00:31;5.30;99.90
12152;DHT22;6139;51.274;7.128;2023-02-01T00:01:36;5.30;99.90
12152;DHT22;6139;51.274;7.128;2023-02-01T00:02:37;5.30;99.90
12152;DHT22;6139;51.274;7.128;2023-02-01T00:03:41;5.30;99.90
12152;DHT22;6139;51.274;7.128;2023-02-01T00:04:42;5.30;99.90
12152;DHT22;6139;51.274;7.128;2023-02-01T00:05:44;5.30;99.90
12152;DHT22;6139;51.274;7.128;2023-02-01T00:06:45;5.30;99.90
12152;DHT22;6139;51.274;7.128;2023-02-01T00:07:47;5.30;99.90
12152;DHT22;6139;51.274;7.128;2023-02-01T00:08:48;5.30;99.90
12152;DHT22;6139;51.274;7.128;2023-02-01T00:09:50;5.40;99.90
12152;DHT22;6139;51.274;7.128;2023-02-01T00:10:58;5.30;99.90
12152;DHT22;6139;51.274;7.128;2023-02-01T00:12:00;5.40;99.90
12152;DHT22;6139;51.274;7.128;2023-02-01T00:13:02;5.40;99.90
12152;DHT22;6139;51.274;7.128;2023-02-01T00:14:04;5.30;99.90
12152;DHT22;6139;51.274;7.128;2023-02-01T00:15:06;5.30;99.90
12152;DHT22;6139;51.274;7.128;2023-02-01T00:16:10;5.30;99.90
12152;DHT22;6139;51.274;7.128;2023-02-01T00:17:14;5.30;99.90
12152;DHT22;6139;51.274;7.128;2023-02-01T00:18:16;5.30;99.90
12152;DHT22;6139;51.274;7.128;2023-02-01T00:19:16;5.20;99.90
12152;DHT22;6139;51.274;7.128;2023-02-01T00:20:18;5.30;99.90
12152;DHT22;6139;51.274;7.128;2023-02-01T00:21:20;5.20;99.90
12152;DHT22;6139;51.274;7.128;2023-02-01T00:22:22;5.20;99.90
12152;DHT22;6139;51.274;7.128;2023-02-01T00:23:24;5.20;99.90
12152;DHT22;6139;51.274;7.128;2023-02-01T00:24:26;5.20;99.90
12152;DHT22;6139;51.274;7.128;2023-02-01T00:25:27;5.20;99.90
12152;DHT22;6139;51.274;7.128;2023-02-01T00:26:31;5.20;99.90
12152;DHT22;6139;51.274;7.128;2023-02-01T00:27:33;5.10;99.90
12152;DHT22;6139;51.274;7.128;2023-02-01T00:28:34;5.20;99.90
12152;DHT22;6139;51.274;7.128;2023-02-01T00:29:35;5.20;99.90
12152;DHT22;6139;51.274;7.128;2023-02-01T00:30:38;5.20;99.90
12152;DHT22;6139;51.274;7.128;2023-02-01T00:31:39;5.20;99.90
12152;DHT22;6139;51.274;7.128;2023-02-01T00:32:43;5.10;99.90
12152;DHT22;6139;51.274;7.128;2023-02-01T00:33:46;5.20;99.90
12152;DHT22;6139;51.274;7.128;2023-02-01T00:34:49;5.20;99.90
12152;DHT22;6139;51.274;7.128;2023-02-01T00:35:50;5.10;99.90
12152;DHT22;6139;51.274;7.128;2023-02-01T00:36:52;5.10;99.90
12152;DHT22;6139;51.274;7.128;2023-02-01T00:37:53;5.10;99.90
12152;DHT22;6139;51.274;7.128;2023-02-01T00:38:55;5.20;99.90
12152;DHT22;6139;51.274;7.128;2023-02-01T00:39:56;5.10;99.90
12152;DHT22;6139;51.274;7.128;2023-02-01T00:41:02;5.20;99.90
12152;DHT22;6139;51.274;7.128;2023-02-01T00:42:03;5.20;99.90
12152;DHT22;6139;51.274;7.128;2023-02-01T00:43:05;5.20;99.90
12152;DHT22;6139;51.274;7.128;2023-02-01T00:44:06;5.20;99.90
12152;DHT22;6139;51.274;7.128;2023-02-01T00:45:09;5.20;99.90
12152;DHT22;6139;51.274;7.128;2023-02-01T00:46:12;5.20;99.90
12152;DHT22;6139;51.274;7.128;2023-02-01T00:47:14;5.10;99.90
12152;DHT22;6139;51.274;7.128;2023-02-01T00:48:17;5.10;99.90
12152;DHT22;6139;51.274;7.128;2023-02-01T00:49:18;5.10;99.90
12152;DHT22;6139;51.274;7.128;2023-02-01T00:50:20;5.10;99.90
12152;DHT22;6139;51.274;7.128;2023-02-01T00:51:23;5.10;99.90
12152;DHT22;6139;51.274;7.128;2023-02-01T00:52:25;5.10;99.90
12152;DHT22;6139;51.274;7.128;2023-02-01T00:53:27;5.10;99.90
12152;DHT22;6139;51.274;7.128;2023-02-01T00:54:29;5.20;99.90
12152;DHT22;6139;51.274;7.128;2023-02-01T00:55:30;5.20;99.90
12152;DHT22;6139;51.274;7.128;2023-02-01T00:56:32;5.10;99.90
12152;DHT22;6139;51.274;7.128;2023-02-01T00:57:34;5.10;99.90
12152;DHT22;6139;51.274;7.128;2023-02-01T00:58:35;5.10;99.90
12152;DHT22;6139;51.274;7.128;2023-02-01T00:59:36;5.10;99.90
12152;DHT22;6139;51.274;7.128;2023-02-01T01:00:38;5.20;99.90
12152;DHT22;6139;51.274;7.128;2023-02-01T01:01:39;5.10;99.90
12152;DHT22;6139;51.274;7.128;2023-02-01T01:02:41;5.20;99.90
12152;DHT22;6139;51.274;7.128;2023-02-01T01:03:45;5.20;99.90
12152;DHT22;6139;51.274;7.128;2023-02-01T01:04:47;5.10;99.90
12152;DHT22;6139;51.274;7.128;2023-02-01T01:05:50;5.10;99.90
12152;DHT22;6139;51.274;7.128;2023-02-01T01:06:51;5.20;99.90
12152;DHT22;6139;51.274;7.128;2023-02-01T01:07:53;5.20;99.90
12152;DHT22;6139;51.274;7.128;2023-02-01T01:08:55;5.20;99.90
12152;DHT22;6139;51.274;7.128;2023-02-01T01:09:57;5.20;99.90
12152;DHT22;6139;51.274;7.128;2023-02-01T01:10:58;5.20;99.90
12152;DHT22;6139;51.274;7.128;2023-02-01T01:12:00;5.20;99.90
12152;DHT22;6139;51.274;7.128;2023-02-01T01:13:05;5.20;99.90
12152;DHT22;6139;51.274;7.128;2023-02-01T01:14:09;5.20;99.90
12152;DHT22;6139;51.274;7.128;2023-02-01T01:15:12;5.20;99.90
12152;DHT22;6139;51.274;7.128;2023-02-01T01:16:13;5.20;99.90
12152;DHT22;6139;51.274;7.128;2023-02-01T01:17:16;5.20;99.90
12152;DHT22;6139;51.274;7.128;2023-02-01T01:18:17;5.20;99.90
12152;DHT22;6139;51.274;7.128;2023-02-01T01:19:20;5.20;99.90
12152;DHT22;6139;51.274;7.128;2023-02-01T01:20:21;5.30;99.90
12152;DHT22;6139;51.274;7.128;2023-02-01T01:21:23;5.30;99.90
12152;DHT22;6139;51.274;7.128;2023-02-01T01:22:24;5.20;99.90
12152;DHT22;6139;51.274;7.128;2023-02-01T01:23:27;5.30;99.90
12152;DHT22;6139;51.274;7.128;2023-02-01T01:24:28;5.30;99.90
12152;DHT22;6139;51.274;7.128;2023-02-01T01:25:30;5.30;99.90
12152;DHT22;6139;51.274;7.128;2023-02-01T01:26:31;5.30;99.90
12152;DHT22;6139;51.274;7.128;2023-02-01T01:27:33;5.30;99.90
12152;DHT22;6139;51.274;7.128;2023-02-01T01:28:34;5.30;99.90
12152;DHT22;6139;51.274;7.128;2023-02-01T01:29:36;5.30;99.90
12152;DHT22;6139;51.274;7.128;2023-02-01T01:30:37;5.20;99.90
12152;DHT22;6139;51.274;7.128;2023-02-01T01:31:39;5.20;99.90
12152;DHT22;6139;51.274;7.128;2023-02-01T01:32:41;5.20;99.90
12152;DHT22;6139;51.274;7.128;2023-02-01T01:33:42;5.20;99.90
12152;DHT22;6139;51.274;7.128;2023-02-01T01:34:46;5.20;99.90
12152;DHT22;6139;51.274;7.128;2023-02-01T01:35:47;5.20;99.90
12152;DHT22;6139;51.274;7.128;2023-02-01T01:36:49;5.20;99.90
12152;DHT22;6139;51.274;7.128;2023-02-01T01:37:50;5.20;99.90
12152;DHT22;6139;51.274;7.128;2023-02-01T01:38:52;5.20;99.90
12152;DHT22;6139;51.274;7.128;2023-02-01T01:39:54;5.20;99.90
12152;DHT22;6139;51.274;7.128;2023-02-01T01:40:56;5.20;99.90
12152;DHT22;6139;51.274;7.128;2023-02-01T01:41:58;5.20;99.90
12152;DHT22;6139;51.274;7.128;2023-02-01T01:43:01;5.20;99.90
12152;DHT22;6139;51.274;7.128;2023-02-01T01:44:04;5.20;99.90
12152;DHT22;6139;51.274;7.128;2023-02-01T01:45:08;5.20;99.90
12152;DHT22;6139;51.274;7.128;2023-02-01T01:46:16;5.20;99.90
12152;DHT22;6139;51.274;7.128;2023-02-01T01:47:17;5.20;99.90
12152;DHT22;6139;51.274;7.128;2023-02-01T01:48:22;5.20;99.90
12152;DHT22;6139;51.274;7.128;2023-02-01T01:49:26;5.20;99.90
12152;DHT22;6139;51.274;7.128;2023-02-01T01:50:32;5.20;99.90
12152;DHT22;6139;51.274;7.128;2023-02-01T01:51:38;5.20;99.90
12152;DHT22;6139;51.274;7.128;2023-02-01T01:52:41;5.20;99.90
12152;DHT22;6139;51.274;7.128;2023-02-01T01:53:48;5.20;99.90
12152;DHT22;6139;51.274;7.128;2023-02-01T01:54:53;5.20;99.90
12152;DHT22;6139;51.274;7.128;2023-02-01T01:55:55;5.20;99.90
12152;DHT22;6139;51.274;7.128;2023-02-01T01:57:02;5.20;99.90
12152;DHT22;6139;51.274;7.128;2023-02-01T01:58:09;5.20;99.90
12152;DHT22;6139;51.274;7.128;2023-02-01T01:59:12;5.20;99.90
12152;DHT22;6139;51.274;7.128;2023-02-01T02:00:15;5.20;99.90
12152;DHT22;6139;51.274;7.128;2023-02-01T02:01:19;5.10;99.90
12152;DHT22;6139;51.274;7.128;2023-02-01T02:02:20;5.20;99.90
12152;DHT22;6139;51.274;7.128;2023-02-01T02:03:27;5.20;99.90
12152;DHT22;6139;51.274;7.128;2023-02-01T02:04:31;5.10;99.90
12152;DHT22;6139;51.274;7.128;2023-02-01T02:05:36;5.10;99.90
12152;DHT22;6139;51.274;7.128;2023-02-01T02:06:41;5.10;99.90
12152;DHT22;6139;51.274;7.128;2023-02-01T02:07:49;5.00;99.90
12152;DHT22;6139;51.274;7.128;2023-02-01T02:08:51;5.00;99.90
12152;DHT22;6139;51.274;7.128;2023-02-01T02:09:54;5.00;99.90
12152;DHT22;6139;51.274;7.128;2023-02-01T02:10:55;5.00;99.90
12152;DHT22;6139;51.274;7.128;2023-02-01T02:12:03;5.00;99.90
12152;DHT22;6139;51.274;7.128;2023-02-01T02:13:05;5.00;99.90
12152;DHT22;6139;51.274;7.128;2023-02-01T02:14:08;4.90;99.90
12152;DHT22;6139;51.274;7.128;2023-02-01T02:15:12;5.00;99.90
12152;DHT22;6139;51.274;7.128;2023-02-01T02:16:34;4.90;99.90
12152;DHT22;6139;51.274;7.128;2023-02-01T02:17:43;4.90;99.90
12152;DHT22;6139;51.274;7.128;2023-02-01T02:18:55;4.90;99.90
12152;DHT22;6139;51.274;7.128;2023-02-01T02:20:43;4.90;99.90
12152;DHT22;6139;51.274;7.128;2023-02-01T02:21:56;4.90;99.90
12152;DHT22;6139;51.274;7.128;2023-02-01T02:23:34;4.90;99.90
12152;DHT22;6139;51.274;7.128;2023-02-01T02:24:59;4.90;99.90
12152;DHT22;6139;51.274;7.128;2023-02-01T02:26:29;4.80;99.90
12152;DHT22;6139;51.274;7.128;2023-02-01T02:27:44;4.90;99.90
12152;DHT22;6139;51.274;7.128;2023-02-01T02:29:08;4.90;99.90
12152;DHT22;6139;51.274;7.128;2023-02-01T02:30:36;4.80;99.90
12152;DHT22;6139;51.274;7.128;2023-02-01T02:32:03;4.80;99.90
12152;DHT22;6139;51.274;7.128;2023-02-01T02:33:32;4.80;99.90
12152;DHT22;6139;51.274;7.128;2023-02-01T02:34:44;4.80;99.90
12152;DHT22;6139;51.274;7.128;2023-02-01T02:35:49;4.90;99.90
12152;DHT22;6139;51.274;7.128;2023-02-01T02:37:03;4.80;99.90
12152;DHT22;6139;51.274;7.128;2023-02-01T02:38:13;4.80;99.90
12152;DHT22;6139;51.274;7.128;2023-02-01T02:39:23;4.80;99.90
12152;DHT22;6139;51.274;7.128;2023-02-01T02:40:32;4.70;99.90
12152;DHT22;6139;51.274;7.128;2023-02-01T02:41:45;4.70;99.90
12152;DHT22;6139;51.274;7.128;2023-02-01T02:43:11;4.70;99.90
12152;DHT22;6139;51.274;7.128;2023-02-01T02:44:35;4.70;99.90
12152;DHT22;6139;51.274;7.128;2023-02-01T02:46:02;4.70;99.90
12152;DHT22;6139;51.274;7.128;2023-02-01T02:47:27;4.70;99.90
12152;DHT22;6139;51.274;7.128;2023-02-01T02:48:35;4.70;99.90
12152;DHT22;6139;51.274;7.128;2023-02-01T02:49:43;4.70;99.90
12152;DHT22;6139;51.274;7.128;2023-02-01T02:51:14;4.70;99.90
12152;DHT22;6139;51.274;7.128;2023-02-01T02:52:36;4.70;99.90
12152;DHT22;6139;51.274;7.128;2023-02-01T02:54:02;4.70;99.90
12152;DHT22;6139;51.274;7.128;2023-02-01T02:55:24;4.70;99.90
12152;DHT22;6139;51.274;7.128;2023-02-01T02:56:28;4.70;99.90
12152;DHT22;6139;51.274;7.128;2023-02-01T02:57:49;4.70;99.90
12152;DHT22;6139;51.274;7.128;2023-02-01T02:59:12;4.70;99.90
12152;DHT22;6139;51.274;7.128;2023-02-01T03:00:34;4.70;99.90
12152;DHT22;6139;51.274;7.128;2023-02-01T03:01:54;4.70;99.90
12152;DHT22;6139;51.274;7.128;2023-02-01T03:03:14;4.70;99.90
12152;DHT22;6139;51.274;7.128;2023-02-01T03:04:36;4.70;99.90
12152;DHT22;6139;51.274;7.128;2023-02-01T03:05:42;4.70;99.90
12152;DHT22;6139;51.274;7.128;2023-02-01T03:06:43;4.70;99.90
12152;DHT22;6139;51.274;7.128;2023-02-01T03:07:53;4.70;99.90
12152;DHT22;6139;51.274;7.128;2023-02-01T03:08:57;4.70;99.90
12152;DHT22;6139;51.274;7.128;2023-02-01T03:10:02;4.70;99.90
12152;DHT22;6139;51.274;7.128;2023-02-01T03:11:08;4.70;99.90
12152;DHT22;6139;51.274;7.128;2023-02-01T03:12:12;4.70;99.90
12152;DHT22;6139;51.274;7.128;2023-02-01T03:13:37;4.70;99.90
12152;DHT22;6139;51.274;7.128;2023-02-01T03:14:41;4.70;99.90
12152;DHT22;6139;51.274;7.128;2023-02-01T03:15:51;4.60;99.90
12152;DHT22;6139;51.274;7.128;2023-02-01T03:16:58;4.60;99.90
12152;DHT22;6139;51.274;7.128;2023-02-01T03:18:11;4.60;99.90
12152;DHT22;6139;51.274;7.128;2023-02-01T03:19:16;4.60;99.90
12152;DHT22;6139;51.274;7.128;2023-02-01T03:20:22;4.60;99.90
12152;DHT22;6139;51.274;7.128;2023-02-01T03:21:28;4.60;99.90
12152;DHT22;6139;51.274;7.128;2023-02-01T03:22:33;4.60;99.90
12152;DHT22;6139;51.274;7.128;2023-02-01T03:23:37;4.60;99.90
12152;DHT22;6139;51.274;7.128;2023-02-01T03:24:41;4.60;99.90
12152;DHT22;6139;51.274;7.128;2023-02-01T03:25:47;4.60;99.90
12152;DHT22;6139;51.274;7.128;2023-02-01T03:26:54;4.60;99.90
12152;DHT22;6139;51.274;7.128;2023-02-01T03:27:59;4.60;99.90
12152;DHT22;6139;51.274;7.128;2023-02-01T03:29:12;4.60;99.90
12152;DHT22;6139;51.274;7.128;2023-02-01T03:30:21;4.60;99.90
12152;DHT22;6139;51.274;7.128;2023-02-01T03:31:24;4.60;99.90
12152;DHT22;6139;51.274;7.128;2023-02-01T03:32:25;4.60;99.90
12152;DHT22;6139;51.274;7.128;2023-02-01T03:33:28;4.60;99.90
12152;DHT22;6139;51.274;7.128;2023-02-01T03:34:31;4.60;99.90
12152;DHT22;6139;51.274;7.128;2023-02-01T03:35:39;4.60;99.90
12152;DHT22;6139;51.274;7.128;2023-02-01T03:36:47;4.70;99.90
12152;DHT22;6139;51.274;7.128;2023-02-01T03:37:53;4.60;99.90
12152;DHT22;6139;51.274;7.128;2023-02-01T03:39:01;4.60;99.90
12152;DHT22;6139;51.274;7.128;2023-02-01T03:40:08;4.70;99.90
12152;DHT22;6139;51.274;7.128;2023-02-01T03:41:17;4.60;99.90
12152;DHT22;6139;51.274;7.128;2023-02-01T03:42:24;4.70;99.90
12152;DHT22;6139;51.274;7.128;2023-02-01T03:43:27;4.60;99.90
12152;DHT22;6139;51.274;7.128;2023-02-01T03:44:33;4.70;99.90
12152;DHT22;6139;51.274;7.128;2023-02-01T03:45:38;4.60;99.90
12152;DHT22;6139;51.274;7.128;2023-02-01T03:46:47;4.60;99.90
12152;DHT22;6139;51.274;7.128;2023-02-01T03:47:52;4.60;99.90
12152;DHT22;6139;51.274;7.128;2023-02-01T03:48:55;4.70;99.90
12152;DHT22;6139;51.274;7.128;2023-02-01T03:49:59;4.60;99.90
12152;DHT22;6139;51.274;7.128;2023-02-01T03:51:04;4.60;99.90
12152;DHT22;6139;51.274;7.128;2023-02-01T03:52:10;4.60;99.90
12152;DHT22;6139;51.274;7.128;2023-02-01T03:53:16;4.70;99.90
12152;DHT22;6139;51.274;7.128;2023-02-01T03:54:20;4.60;99.90
12152;DHT22;6139;51.274;7.128;2023-02-01T03:55:23;4.60;99.90
12152;DHT22;6139;51.274;7.128;2023-02-01T03:56:27;4.60;99.90
12152;DHT22;6139;51.274;7.128;2023-02-01T03:57:33;4.60;99.90
12152;DHT22;6139;51.274;7.128;2023-02-01T03:58:35;4.70;99.90
12152;DHT22;6139;51.274;7.128;2023-02-01T03:59:39;4.60;99.90
12152;DHT22;6139;51.274;7.128;2023-02-01T04:00:43;4.60;99.90
12152;DHT22;6139;51.274;7.128;2023-02-01T04:01:46;4.60;99.90
12152;DHT22;6139;51.274;7.128;2023-02-01T04:02:47;4.60;99.90
12152;DHT22;6139;51.274;7.128;2023-02-01T04:03:49;4.70;99.90
12152;DHT22;6139;51.274;7.128;2023-02-01T04:04:52;4.70;99.90
12152;DHT22;6139;51.274;7.128;2023-02-01T04:05:54;4.70;99.90
12152;DHT22;6139;51.274;7.128;2023-02-01T04:07:00;4.70;99.90
12152;DHT22;6139;51.274;7.128;2023-02-01T04:08:03;4.70;99.90
12152;DHT22;6139;51.274;7.128;2023-02-01T04:09:05;4.70;99.90
12152;DHT22;6139;51.274;7.128;2023-02-01T04:10:08;4.70;99.90
12152;DHT22;6139;51.274;7.128;2023-02-01T04:11:09;4.70;99.90
12152;DHT22;6139;51.274;7.128;2023-02-01T04:12:11;4.70;99.90
12152;DHT22;6139;51.274;7.128;2023-02-01T04:13:13;4.70;99.90
12152;DHT22;6139;51.274;7.128;2023-02-01T04:14:15;4.60;99.90
12152;DHT22;6139;51.274;7.128;2023-02-01T04:15:16;4.70;99.90
12152;DHT22;6139;51.274;7.128;2023-02-01T04:16:18;4.60;99.90
12152;DHT22;6139;51.274;7.128;2023-02-01T04:17:19;4.70;99.90
12152;DHT22;6139;51.274;7.128;2023-02-01T04:18:21;4.70;99.90
12152;DHT22;6139;51.274;7.128;2023-02-01T04:19:22;4.70;99.90
12152;DHT22;6139;51.274;7.128;2023-02-01T04:20:24;4.70;99.90
12152;DHT22;6139;51.274;7.128;2023-02-01T04:21:25;4.70;99.90
12152;DHT22;6139;51.274;7.128;2023-02-01T04:22:28;4.70;99.90
12152;DHT22;6139;51.274;7.128;2023-02-01T04:23:30;4.70;99.90
12152;DHT22;6139;51.274;7.128;2023-02-01T04:24:33;4.70;99.90
12152;DHT22;6139;51.274;7.128;2023-02-01T04:25:34;4.70;99.90
12152;DHT22;6139;51.274;7.128;2023-02-01T04:26:35;4.70;99.90
12152;DHT22;6139;51.274;7.128;2023-02-01T04:27:37;4.70;99.90
12152;DHT22;6139;51.274;7.128;2023-02-01T04:28:39;4.70;99.90
12152;DHT22;6139;51.274;7.128;2023-02-01T04:29:40;4.70;99.90
12152;DHT22;6139;51.274;7.128;2023-02-01T04:30:42;4.70;99.90
12152;DHT22;6139;51.274;7.128;2023-02-01T04:31:43;4.70;99.90
12152;DHT22;6139;51.274;7.128;2023-02-01T04:32:46;4.70;99.90
12152;DHT22;6139;51.274;7.128;2023-02-01T04:33:47;4.60;99.90
12152;DHT22;6139;51.274;7.128;2023-02-01T04:34:49;4.60;99.90
12152;DHT22;6139;51.274;7.128;2023-02-01T04:35:50;4.60;99.90
12152;DHT22;6139;51.274;7.128;2023-02-01T04:36:52;4.70;99.90
12152;DHT22;6139;51.274;7.128;2023-02-01T04:37:56;4.60;99.90
12152;DHT22;6139;51.274;7.128;2023-02-01T04:38:57;4.70;99.90
12152;DHT22;6139;51.274;7.128;2023-02-01T04:39:59;4.70;99.90
12152;DHT22;6139;51.274;7.128;2023-02-01T04:41:00;4.70;99.90
12152;DHT22;6139;51.274;7.128;2023-02-01T04:42:02;4.70;99.90
12152;DHT22;6139;51.274;7.128;2023-02-01T04:43:03;4.70;99.90
12152;DHT22;6139;51.274;7.128;2023-02-01T04:44:05;4.70;99.90
12152;DHT22;6139;51.274;7.128;2023-02-01T04:45:07;4.70;99.90
12152;DHT22;6139;51.274;7.128;2023-02-01T04:46:09;4.70;99.90
12152;DHT22;6139;51.274;7.128;2023-02-01T04:47:10;4.80;99.90
12152;DHT22;6139;51.274;7.128;2023-02-01T04:48:12;4.80;99.90
12152;DHT22;6139;51.274;7.128;2023-02-01T04:49:14;4.80;99.90
12152;DHT22;6139;51.274;7.128;2023-02-01T04:50:16;4.80;99.90
12152;DHT22;6139;51.274;7.128;2023-02-01T04:51:17;4.80;99.90
12152;DHT22;6139;51.274;7.128;2023-02-01T04:52:19;4.80;99.90
12152;DHT22;6139;51.274;7.128;2023-02-01T04:53:22;4.80;99.90
12152;DHT22;6139;51.274;7.128;2023-02-01T04:54:23;4.80;99.90
12152;DHT22;6139;51.274;7.128;2023-02-01T04:55:24;4.80;99.90
12152;DHT22;6139;51.274;7.128;2023-02-01T04:56:26;4.80;99.90
12152;DHT22;6139;51.274;7.128;2023-02-01T04:57:27;4.80;99.90
12152;DHT22;6139;51.274;7.128;2023-02-01T04:58:29;4.80;99.90
12152;DHT22;6139;51.274;7.128;2023-02-01T04:59:30;4.80;99.90
12152;DHT22;6139;51.274;7.128;2023-02-01T05:00:32;4.80;99.90
12152;DHT22;6139;51.274;7.128;2023-02-01T05:01:33;4.80;99.90
12152;DHT22;6139;51.274;7.128;2023-02-01T05:02:35;4.80;99.90
12152;DHT22;6139;51.274;7.128;2023-02-01T05:03:36;4.80;99.90
12152;DHT22;6139;51.274;7.128;2023-02-01T05:04:38;4.80;99.90
12152;DHT22;6139;51.274;7.128;2023-02-01T05:05:39;4.80;99.90
12152;DHT22;6139;51.274;7.128;2023-02-01T05:06:41;4.80;99.90
12152;DHT22;6139;51.274;7.128;2023-02-01T05:07:42;4.80;99.90
12152;DHT22;6139;51.274;7.128;2023-02-01T05:08:45;4.80;99.90
12152;DHT22;6139;51.274;7.128;2023-02-01T05:09:46;4.80;99.90
12152;DHT22;6139;51.274;7.128;2023-02-01T05:10:48;4.80;99.90
12152;DHT22;6139;51.274;7.128;2023-02-01T05:11:49;4.80;99.90
12152;DHT22;6139;51.274;7.128;2023-02-01T05:13:09;4.80;99.90
12152;DHT22;6139;51.274;7.128;2023-02-01T05:14:29;4.80;99.90
12152;DHT22;6139;51.274;7.128;2023-02-01T05:15:31;4.80;99.90
12152;DHT22;6139;51.274;7.128;2023-02-01T05:16:32;4.80;99.90
12152;DHT22;6139;51.274;7.128;2023-02-01T05:17:34;4.80;99.90
12152;DHT22;6139;51.274;7.128;2023-02-01T05:18:35;4.80;99.90
12152;DHT22;6139;51.274;7.128;2023-02-01T05:19:37;4.80;99.90
12152;DHT22;6139;51.274;7.128;2023-02-01T05:20:38;4.80;99.90
12152;DHT22;6139;51.274;7.128;2023-02-01T05:21:40;4.80;99.90
12152;DHT22;6139;51.274;7.128;2023-02-01T05:22:41;4.80;99.90
12152;DHT22;6139;51.274;7.128;2023-02-01T05:23:45;4.80;99.90
12152;DHT22;6139;51.274;7.128;2023-02-01T05:25:05;4.80;99.90
12152;DHT22;6139;51.274;7.128;2023-02-01T05:26:07;4.80;99.90
12152;DHT22;6139;51.274;7.128;2023-02-01T05:27:08;4.80;99.90
12152;DHT22;6139;51.274;7.128;2023-02-01T05:28:10;4.80;99.90
12152;DHT22;6139;51.274;7.128;2023-02-01T05:29:11;4.80;99.90
12152;DHT22;6139;51.274;7.128;2023-02-01T05:30:14;4.80;99.90
12152;DHT22;6139;51.274;7.128;2023-02-01T05:31:16;4.80;99.90
12152;DHT22;6139;51.274;7.128;2023-02-01T05:32:17;4.80;99.90
12152;DHT22;6139;51.274;7.128;2023-02-01T05:33:19;4.70;99.90
12152;DHT22;6139;51.274;7.128;2023-02-01T05:34:20;4.70;99.90
12152;DHT22;6139;51.274;7.128;2023-02-01T05:35:22;4.70;99.90
12152;DHT22;6139;51.274;7.128;2023-02-01T05:36:23;4.70;99.90
12152;DHT22;6139;51.274;7.128;2023-02-01T05:37:25;4.70;99.90
12152;DHT22;6139;51.274;7.128;2023-02-01T05:38:25;4.70;99.90
12152;DHT22;6139;51.274;7.128;2023-02-01T05:39:29;4.70;99.90
12152;DHT22;6139;51.274;7.128;2023-02-01T05:40:30;4.70;99.90
12152;DHT22;6139;51.274;7.128;2023-02-01T05:41:32;4.70;99.90
12152;DHT22;6139;51.274;7.128;2023-02-01T05:42:33;4.70;99.90
12152;DHT22;6139;51.274;7.128;2023-02-01T05:43:35;4.70;99.90
12152;DHT22;6139;51.274;7.128;2023-02-01T05:44:36;4.70;99.90
12152;DHT22;6139;51.274;7.128;2023-02-01T05:45:37;4.70;99.90
12152;DHT22;6139;51.274;7.128;2023-02-01T05:46:39;4.70;99.90
12152;DHT22;6139;51.274;7.128;2023-02-01T05:47:40;4.70;99.90
12152;DHT22;6139;51.274;7.128;2023-02-01T05:48:42;4.70;99.90
12152;DHT22;6139;51.274;7.128;2023-02-01T05:49:44;4.70;99.90
12152;DHT22;6139;51.274;7.128;2023-02-01T05:50:46;4.70;99.90
12152;DHT22;6139;51.274;7.128;2023-02-01T05:51:47;4.70;99.90
12152;DHT22;6139;51.274;7.128;2023-02-01T05:52:49;4.70;99.90
12152;DHT22;6139;51.274;7.128;2023-02-01T05:53:50;4.70;99.90
12152;DHT22;6139;51.274;7.128;2023-02-01T05:54:53;4.70;99.90
12152;DHT22;6139;51.274;7.128;2023-02-01T05:55:54;4.70;99.90
12152;DHT22;6139;51.274;7.128;2023-02-01T05:56:56;4.70;99.90
12152;DHT22;6139;51.274;7.128;2023-02-01T05:57:57;4.70;99.90
12152;DHT22;6139;51.274;7.128;2023-02-01T05:58:59;4.70;99.90
12152;DHT22;6139;51.274;7.128;2023-02-01T06:00:00;4.60;99.90
12152;DHT22;6139;51.274;7.128;2023-02-01T06:01:03;4.70;99.90
12152;DHT22;6139;51.274;7.128;2023-02-01T06:02:04;4.60;99.90
12152;DHT22;6139;51.274;7.128;2023-02-01T06:03:06;4.60;99.90
12152;DHT22;6139;51.274;7.128;2023-02-01T06:04:07;4.60;99.90
12152;DHT22;6139;51.274;7.128;2023-02-01T06:05:09;4.70;99.90
12152;DHT22;6139;51.274;7.128;2023-02-01T06:06:10;4.60;99.90
12152;DHT22;6139;51.274;7.128;2023-02-01T06:07:12;4.60;99.90
12152;DHT22;6139;51.274;7.128;2023-02-01T06:08:14;4.60;99.90
12152;DHT22;6139;51.274;7.128;2023-02-01T06:09:16;4.60;99.90
12152;DHT22;6139;51.274;7.128;2023-02-01T06:10:18;4.70;99.90
12152;DHT22;6139;51.274;7.128;2023-02-01T06:11:20;4.60;99.90
12152;DHT22;6139;51.274;7.128;2023-02-01T06:12:21;4.60;99.90
12152;DHT22;6139;51.274;7.128;2023-02-01T06:13:23;4.60;99.90
12152;DHT22;6139;51.274;7.128;2023-02-01T06:14:24;4.60;99.90
12152;DHT22;6139;51.274;7.128;2023-02-01T06:15:26;4.60;99.90
12152;DHT22;6139;51.274;7.128;2023-02-01T06:16:28;4.60;99.90
12152;DHT22;6139;51.274;7.128;2023-02-01T06:17:29;4.60;99.90
12152;DHT22;6139;51.274;7.128;2023-02-01T06:18:31;4.70;99.90
12152;DHT22;6139;51.274;7.128;2023-02-01T06:19:33;4.60;99.90
12152;DHT22;6139;51.274;7.128;2023-02-01T06:20:34;4.60;99.90
12152;DHT22;6139;51.274;7.128;2023-02-01T06:21:36;4.60;99.90
12152;DHT22;6139;51.274;7.128;2023-02-01T06:22:37;4.60;99.90
12152;DHT22;6139;51.274;7.128;2023-02-01T06:23:39;4.60;99.90
12152;DHT22;6139;51.274;7.128;2023-02-01T06:24:40;4.60;99.90
12152;DHT22;6139;51.274;7.128;2023-02-01T06:25:43;4.60;99.90
12152;DHT22;6139;51.274;7.128;2023-02-01T06:26:45;4.60;99.90
12152;DHT22;6139;51.274;7.128;2023-02-01T06:27:47;4.70;99.90
12152;DHT22;6139;51.274;7.128;2023-02-01T06:28:49;4.70;99.90
12152;DHT22;6139;51.274;7.128;2023-02-01T06:29:51;4.60;99.90
12152;DHT22;6139;51.274;7.128;2023-02-01T06:30:54;4.60;99.90
12152;DHT22;6139;51.274;7.128;2023-02-01T06:31:56;4.60;99.90
12152;DHT22;6139;51.274;7.128;2023-02-01T06:32:57;4.60;99.90
12152;DHT22;6139;51.274;7.128;2023-02-01T06:33:59;4.60;99.90
12152;DHT22;6139;51.274;7.128;2023-02-01T06:35:00;4.60;99.90
12152;DHT22;6139;51.274;7.128;2023-02-01T06:36:04;4.60;99.90
12152;DHT22;6139;51.274;7.128;2023-02-01T06:37:05;4.60;99.90
12152;DHT22;6139;51.274;7.128;2023-02-01T06:38:07;4.60;99.90
12152;DHT22;6139;51.274;7.128;2023-02-01T06:39:08;4.60;99.90
12152;DHT22;6139;51.274;7.128;2023-02-01T06:40:11;4.60;99.90
12152;DHT22;6139;51.274;7.128;2023-02-01T06:41:13;4.60;99.90
12152;DHT22;6139;51.274;7.128;2023-02-01T06:42:15;4.60;99.90
12152;DHT22;6139;51.274;7.128;2023-02-01T06:43:16;4.60;99.90
12152;DHT22;6139;51.274;7.128;2023-02-01T06:44:18;4.60;99.90
12152;DHT22;6139;51.274;7.128;2023-02-01T06:45:19;4.60;99.90
12152;DHT22;6139;51.274;7.128;2023-02-01T06:46:21;4.60;99.90
12152;DHT22;6139;51.274;7.128;2023-02-01T06:47:22;4.60;99.90
12152;DHT22;6139;51.274;7.128;2023-02-01T06:48:24;4.60;99.90
12152;DHT22;6139;51.274;7.128;2023-02-01T06:49:25;4.60;99.90
12152;DHT22;6139;51.274;7.128;2023-02-01T06:50:27;4.60;99.90
12152;DHT22;6139;51.274;7.128;2023-02-01T06:51:28;4.60;99.90
12152;DHT22;6139;51.274;7.128;2023-02-01T06:52:30;4.60;99.90
12152;DHT22;6139;51.274;7.128;2023-02-01T06:53:31;4.60;99.90
12152;DHT22;6139;51.274;7.128;2023-02-01T06:54:33;4.60;99.90
12152;DHT22;6139;51.274;7.128;2023-02-01T06:55:34;4.60;99.90
12152;DHT22;6139;51.274;7.128;2023-02-01T06:56:38;4.60;99.90
12152;DHT22;6139;51.274;7.128;2023-02-01T06:57:39;4.60;99.90
12152;DHT22;6139;51.274;7.128;2023-02-01T06:58:41;4.60;99.90
12152;DHT22;6139;51.274;7.128;2023-02-01T06:59:43;4.60;99.90
12152;DHT22;6139;51.274;7.128;2023-02-01T07:00:44;4.60;99.90